createdAt,value
2019-03-17T00:02:16.965Z,48.60
2019-03-17T00:04:43.110Z,48.60
2019-03-17T00:07:09.278Z,48.50
2019-03-17T00:09:35.475Z,48.60
2019-03-17T00:12:01.634Z,48.60
2019-03-17T00:14:27.784Z,48.50
2019-03-17T00:16:54.278Z,48.50
2019-03-17T00:19:20.433Z,48.60
2019-03-17T00:21:46.596Z,48.60
2019-03-17T00:24:12.744Z,48.50
2019-03-17T00:26:38.896Z,48.60
2019-03-17T00:29:05.042Z,48.50
2019-03-17T00:31:31.193Z,48.60
2019-03-17T00:33:57.352Z,48.50
2019-03-17T00:36:23.513Z,48.60
2019-03-17T00:38:50.433Z,48.60
2019-03-17T00:41:16.576Z,48.60
2019-03-17T00:43:42.735Z,48.60
2019-03-17T00:46:08.886Z,48.70
2019-03-17T00:48:35.033Z,48.60
2019-03-17T00:51:01.195Z,48.70
2019-03-17T00:53:27.346Z,48.60
2019-03-17T00:55:53.497Z,48.60
2019-03-17T00:58:19.648Z,48.70
2019-03-17T01:00:45.812Z,48.70
2019-03-17T01:03:11.959Z,48.60
2019-03-17T01:05:38.110Z,48.60
2019-03-17T01:08:04.266Z,48.60
2019-03-17T01:10:30.417Z,48.60
2019-03-17T01:12:56.574Z,48.70
2019-03-17T01:15:22.734Z,48.60
2019-03-17T01:17:48.878Z,48.70
2019-03-17T01:20:15.743Z,48.70
2019-03-17T01:22:41.905Z,48.60
2019-03-17T01:25:08.051Z,48.70
2019-03-17T01:27:34.200Z,48.70
2019-03-17T01:30:00.409Z,48.70
2019-03-17T01:32:26.552Z,48.80
2019-03-17T01:34:52.719Z,48.70
2019-03-17T01:37:18.882Z,48.70
2019-03-17T01:39:45.043Z,48.70
2019-03-17T01:42:11.207Z,48.70
2019-03-17T01:44:37.365Z,48.70
2019-03-17T01:47:03.516Z,48.80
2019-03-17T01:49:29.685Z,48.70
2019-03-17T01:51:55.838Z,48.60
2019-03-17T01:54:22.013Z,48.70
2019-03-17T01:56:48.165Z,48.70
2019-03-17T01:59:14.336Z,48.60
2019-03-17T02:01:40.492Z,48.70
2019-03-17T02:04:06.670Z,48.60
2019-03-17T02:06:32.833Z,48.70
2019-03-17T02:08:59.009Z,48.70
2019-03-17T02:11:25.162Z,48.60
2019-03-17T02:13:52.095Z,48.70
2019-03-17T02:16:18.252Z,48.70
2019-03-17T02:18:44.435Z,48.70
2019-03-17T02:21:10.598Z,48.70
2019-03-17T02:23:36.756Z,48.70
2019-03-17T02:26:02.913Z,48.70
2019-03-17T02:28:29.073Z,48.60
2019-03-17T02:30:55.216Z,48.50
2019-03-17T02:33:21.370Z,48.60
2019-03-17T02:35:47.539Z,48.60
2019-03-17T02:38:13.688Z,48.60
2019-03-17T02:40:39.841Z,48.60
2019-03-17T02:43:05.994Z,48.60
2019-03-17T02:45:32.156Z,48.60
2019-03-17T02:47:58.313Z,48.30
2019-03-17T02:50:24.466Z,48.50
2019-03-17T02:52:50.613Z,48.60
2019-03-17T02:55:17.529Z,48.60
2019-03-17T02:57:43.746Z,48.60
2019-03-17T03:00:09.894Z,48.60
2019-03-17T03:02:36.053Z,48.60
2019-03-17T03:05:02.221Z,48.60
2019-03-17T03:07:28.379Z,48.70
2019-03-17T03:09:54.552Z,48.70
2019-03-17T03:12:20.706Z,48.60
2019-03-17T03:14:46.864Z,48.60
2019-03-17T03:17:13.017Z,48.60
2019-03-17T03:19:39.169Z,48.60
2019-03-17T03:22:05.330Z,48.50
2019-03-17T03:24:32.978Z,48.60
2019-03-17T03:26:59.129Z,48.60
2019-03-17T03:29:27.332Z,48.50
2019-03-17T03:31:51.491Z,48.40
2019-03-17T03:34:17.649Z,48.50
2019-03-17T03:36:43.815Z,48.50
2019-03-17T03:39:09.971Z,48.50
2019-03-17T03:41:36.145Z,48.50
2019-03-17T03:44:02.449Z,48.50
2019-03-17T03:46:28.633Z,48.40
2019-03-17T03:48:54.786Z,48.40
2019-03-17T03:51:20.949Z,48.30
2019-03-17T03:53:47.096Z,48.40
2019-03-17T03:56:13.277Z,48.30
2019-03-17T03:58:39.434Z,48.30
2019-03-17T04:01:05.590Z,48.30
2019-03-17T04:03:31.757Z,48.20
2019-03-17T04:05:57.909Z,48.30
2019-03-17T04:08:24.060Z,48.20
2019-03-17T04:10:50.208Z,48.30
2019-03-17T04:13:20.457Z,48.20
2019-03-17T04:15:46.614Z,48.30
2019-03-17T04:18:12.768Z,48.20
2019-03-17T04:20:38.925Z,48.30
2019-03-17T04:23:05.087Z,48.30
2019-03-17T04:25:31.237Z,48.40
2019-03-17T04:27:57.388Z,48.40
2019-03-17T04:30:23.547Z,48.20
2019-03-17T04:32:49.705Z,48.30
2019-03-17T04:35:15.865Z,48.50
2019-03-17T04:37:42.031Z,48.40
2019-03-17T04:40:08.225Z,48.50
2019-03-17T04:42:34.373Z,48.50
2019-03-17T04:45:00.518Z,48.40
2019-03-17T04:47:26.679Z,48.50
2019-03-17T04:49:52.829Z,48.50
2019-03-17T04:52:18.980Z,48.50
2019-03-17T04:54:45.135Z,48.70
2019-03-17T04:57:11.288Z,48.50
2019-03-17T04:59:37.444Z,48.60
2019-03-17T05:02:03.596Z,48.50
2019-03-17T05:04:29.751Z,48.50
2019-03-17T05:06:55.900Z,48.50
2019-03-17T05:09:22.050Z,48.50
2019-03-17T05:11:48.220Z,48.60
2019-03-17T05:14:14.371Z,48.60
2019-03-17T05:16:40.517Z,48.60
2019-03-17T05:19:06.672Z,48.70
2019-03-17T05:21:32.828Z,48.70
2019-03-17T05:23:59.014Z,48.60
2019-03-17T05:26:25.156Z,48.70
2019-03-17T05:28:51.304Z,48.70
2019-03-17T05:31:17.456Z,48.80
2019-03-17T05:33:44.368Z,48.90
2019-03-17T05:36:10.525Z,48.90
2019-03-17T05:38:36.669Z,48.90
2019-03-17T05:41:03.006Z,48.90
2019-03-17T05:43:29.195Z,48.90
2019-03-17T05:45:55.345Z,49.00
2019-03-17T05:48:21.496Z,49.00
2019-03-17T05:50:47.652Z,49.00
2019-03-17T05:53:13.820Z,49.10
2019-03-17T05:55:39.974Z,49.00
2019-03-17T05:58:06.138Z,49.20
2019-03-17T06:00:32.291Z,49.10
2019-03-17T06:02:58.470Z,49.10
2019-03-17T06:05:24.788Z,49.10
2019-03-17T06:07:50.956Z,49.20
2019-03-17T06:10:17.113Z,49.30
2019-03-17T06:12:43.295Z,49.30
2019-03-17T06:15:09.452Z,49.40
2019-03-17T06:17:35.620Z,49.40
2019-03-17T06:20:01.772Z,49.40
2019-03-17T06:22:28.210Z,49.40
2019-03-17T06:24:54.363Z,49.50
2019-03-17T06:27:20.522Z,49.50
2019-03-17T06:29:46.672Z,49.40
2019-03-17T06:32:12.828Z,49.60
2019-03-17T06:34:38.973Z,49.50
2019-03-17T06:37:05.133Z,49.50
2019-03-17T06:39:31.284Z,49.50
2019-03-17T06:41:57.433Z,49.50
2019-03-17T06:44:23.576Z,49.50
2019-03-17T06:46:49.721Z,49.60
2019-03-17T06:49:15.874Z,49.60
2019-03-17T06:51:42.049Z,49.70
2019-03-17T06:54:08.427Z,49.60
2019-03-17T06:56:34.573Z,49.70
2019-03-17T06:59:00.726Z,49.70
2019-03-17T07:01:26.880Z,49.80
2019-03-17T07:03:53.038Z,49.80
2019-03-17T07:06:19.198Z,49.80
2019-03-17T07:08:45.360Z,49.80
2019-03-17T07:11:11.518Z,49.80
2019-03-17T07:13:37.684Z,49.90
2019-03-17T07:16:03.833Z,49.90
2019-03-17T07:18:30.000Z,50.00
2019-03-17T07:20:56.149Z,50.70
2019-03-17T07:23:22.314Z,51.30
2019-03-17T07:25:48.461Z,51.40
2019-03-17T07:28:14.628Z,51.50
2019-03-17T07:30:40.772Z,51.40
2019-03-17T07:33:06.943Z,51.10
2019-03-17T07:35:33.097Z,50.90
2019-03-17T07:37:59.249Z,50.50
2019-03-17T07:40:25.406Z,50.40
2019-03-17T07:42:51.552Z,50.10
2019-03-17T07:45:17.700Z,50.00
2019-03-17T07:47:43.862Z,49.80
2019-03-17T07:50:10.708Z,49.90
2019-03-17T07:52:36.851Z,50.00
2019-03-17T07:55:03.009Z,49.90
2019-03-17T07:57:29.171Z,49.90
2019-03-17T07:59:55.497Z,49.90
2019-03-17T08:02:21.640Z,49.60
2019-03-17T08:04:47.814Z,49.40
2019-03-17T08:07:13.968Z,49.20
2019-03-17T08:09:40.121Z,49.10
2019-03-17T08:12:06.283Z,48.90
2019-03-17T08:14:32.587Z,48.60
2019-03-17T08:16:58.731Z,48.40
2019-03-17T08:19:24.880Z,48.40
2019-03-17T08:21:51.033Z,48.10
2019-03-17T08:24:17.200Z,48.00
2019-03-17T08:26:43.350Z,47.90
2019-03-17T08:29:09.524Z,47.60
2019-03-17T08:31:35.676Z,47.50
2019-03-17T08:34:01.842Z,47.50
2019-03-17T08:36:28.001Z,47.30
2019-03-17T08:38:54.165Z,47.10
2019-03-17T08:41:20.330Z,47.00
2019-03-17T08:43:54.310Z,47.00
2019-03-17T08:46:13.466Z,46.80
2019-03-17T08:48:39.623Z,46.80
2019-03-17T08:51:05.772Z,46.90
2019-03-17T08:53:31.932Z,47.00
2019-03-17T08:55:58.087Z,46.90
2019-03-17T08:58:25.010Z,46.90
2019-03-17T09:00:51.167Z,46.90
2019-03-17T09:03:17.325Z,46.80
2019-03-17T09:05:43.472Z,46.70
2019-03-17T09:08:09.628Z,46.70
2019-03-17T09:10:35.781Z,46.80
2019-03-17T09:13:04.123Z,46.60
2019-03-17T09:15:28.118Z,46.60
2019-03-17T09:17:54.265Z,46.70
2019-03-17T09:20:20.414Z,46.70
2019-03-17T09:22:46.675Z,46.40
2019-03-17T09:25:12.784Z,46.40
2019-03-17T09:27:38.931Z,46.50
2019-03-17T09:30:05.120Z,46.50
2019-03-17T09:32:31.273Z,46.50
2019-03-17T09:34:57.417Z,46.40
2019-03-17T09:37:23.566Z,46.30
2019-03-17T09:39:49.721Z,46.30
2019-03-17T09:42:15.879Z,46.30
2019-03-17T09:44:42.055Z,46.40
2019-03-17T09:47:08.201Z,46.40
2019-03-17T09:49:34.374Z,46.20
2019-03-17T09:52:00.534Z,46.20
2019-03-17T09:54:26.701Z,46.40
2019-03-17T09:56:52.853Z,46.30
2019-03-17T09:59:19.051Z,46.10
2019-03-17T10:01:45.204Z,46.20
2019-03-17T10:04:11.352Z,46.20
2019-03-17T10:06:37.668Z,45.90
2019-03-17T10:09:03.823Z,46.00
2019-03-17T10:11:29.979Z,46.10
2019-03-17T10:13:56.144Z,46.00
2019-03-17T10:16:23.051Z,46.00
2019-03-17T10:18:49.215Z,45.90
2019-03-17T10:21:15.371Z,46.00
2019-03-17T10:23:41.527Z,46.10
2019-03-17T10:26:07.673Z,46.10
2019-03-17T10:28:35.100Z,45.90
2019-03-17T10:31:00.022Z,46.00
2019-03-17T10:33:26.168Z,46.00
2019-03-17T10:35:52.313Z,45.90
2019-03-17T10:38:18.456Z,46.00
2019-03-17T10:40:44.613Z,45.90
2019-03-17T10:43:10.765Z,45.70
2019-03-17T10:45:36.921Z,45.60
2019-03-17T10:48:03.064Z,45.60
2019-03-17T10:50:29.218Z,45.50
2019-03-17T10:52:55.372Z,45.30
2019-03-17T10:55:22.301Z,45.30
2019-03-17T10:57:48.445Z,45.30
2019-03-17T11:00:14.630Z,45.10
2019-03-17T11:02:40.933Z,45.10
2019-03-17T11:05:07.109Z,45.10
2019-03-17T11:07:33.261Z,45.00
2019-03-17T11:09:59.435Z,44.80
2019-03-17T11:12:25.580Z,44.80
2019-03-17T11:14:51.749Z,44.70
2019-03-17T11:17:17.897Z,44.70
2019-03-17T11:19:44.057Z,44.70
2019-03-17T11:22:10.205Z,44.60
2019-03-17T11:24:36.357Z,44.60
2019-03-17T11:27:02.511Z,44.70
2019-03-17T11:29:28.670Z,44.60
2019-03-17T11:31:54.826Z,44.60
2019-03-17T11:34:20.974Z,44.60
2019-03-17T11:36:47.131Z,44.60
2019-03-17T11:39:13.281Z,44.60
2019-03-17T11:41:40.189Z,44.60
2019-03-17T11:44:06.342Z,44.60
2019-03-17T11:46:32.513Z,44.50
2019-03-17T11:48:58.664Z,44.50
2019-03-17T11:51:24.825Z,44.40
2019-03-17T11:53:51.750Z,44.30
2019-03-17T11:56:17.900Z,44.30
2019-03-17T11:58:44.048Z,44.30
2019-03-17T12:01:10.209Z,44.30
2019-03-17T12:03:36.369Z,44.00
2019-03-17T12:06:03.328Z,44.10
2019-03-17T12:08:29.485Z,44.10
2019-03-17T12:10:55.700Z,44.00
2019-03-17T12:13:21.855Z,43.90
2019-03-17T12:15:48.025Z,43.90
2019-03-17T12:18:14.181Z,44.00
2019-03-17T12:20:40.348Z,43.90
2019-03-17T12:23:06.492Z,43.70
2019-03-17T12:25:32.638Z,43.70
2019-03-17T12:27:58.799Z,43.60
2019-03-17T12:30:24.960Z,43.50
2019-03-17T12:32:51.108Z,43.40
2019-03-17T12:35:17.257Z,43.60
2019-03-17T12:37:43.419Z,43.60
2019-03-17T12:40:09.579Z,43.40
2019-03-17T12:42:35.737Z,43.40
2019-03-17T12:45:01.900Z,43.20
2019-03-17T12:47:28.059Z,43.10
2019-03-17T12:49:54.216Z,43.00
2019-03-17T12:52:20.360Z,43.10
2019-03-17T12:54:46.513Z,43.00
2019-03-17T12:57:12.666Z,42.90
2019-03-17T12:59:38.820Z,42.50
2019-03-17T13:02:05.732Z,42.60
2019-03-17T13:04:31.885Z,42.60
2019-03-17T13:06:58.035Z,42.30
2019-03-17T13:09:24.203Z,42.30
2019-03-17T13:11:50.385Z,41.90
2019-03-17T13:14:16.557Z,41.90
2019-03-17T13:16:42.708Z,41.80
2019-03-17T13:19:08.862Z,41.50
2019-03-17T13:21:35.031Z,41.30
2019-03-17T13:24:01.181Z,41.40
2019-03-17T13:26:27.331Z,41.30
2019-03-17T13:28:54.249Z,41.00
2019-03-17T13:31:20.649Z,41.00
2019-03-17T13:33:46.588Z,40.90
2019-03-17T13:36:12.754Z,41.00
2019-03-17T13:38:39.095Z,40.90
2019-03-17T13:41:05.256Z,40.80
2019-03-17T13:43:31.428Z,40.70
2019-03-17T13:45:57.589Z,40.60
2019-03-17T13:48:23.746Z,40.60
2019-03-17T13:50:49.895Z,40.60
2019-03-17T13:53:16.065Z,40.20
2019-03-17T13:55:42.215Z,40.20
2019-03-17T13:58:08.367Z,40.30
2019-03-17T14:00:34.530Z,40.30
2019-03-17T14:03:01.449Z,40.20
2019-03-17T14:05:27.597Z,40.20
2019-03-17T14:07:53.752Z,40.40
2019-03-17T14:10:19.900Z,40.40
2019-03-17T14:12:46.061Z,40.30
2019-03-17T14:15:12.217Z,40.20
2019-03-17T14:17:38.359Z,40.20
2019-03-17T14:20:04.509Z,40.30
2019-03-17T14:22:30.660Z,40.10
2019-03-17T14:24:56.823Z,40.00
2019-03-17T14:27:22.973Z,40.10
2019-03-17T14:29:49.207Z,40.10
2019-03-17T14:32:15.324Z,39.90
2019-03-17T14:34:41.499Z,39.90
2019-03-17T14:37:07.799Z,40.10
2019-03-17T14:39:33.954Z,40.00
2019-03-17T14:42:00.100Z,39.80
2019-03-17T14:44:26.249Z,39.90
2019-03-17T14:46:52.442Z,40.00
2019-03-17T14:49:19.353Z,39.70
2019-03-17T14:51:45.510Z,39.70
2019-03-17T14:54:11.654Z,39.90
2019-03-17T14:56:37.805Z,39.80
2019-03-17T14:59:03.969Z,39.90
2019-03-17T15:01:30.125Z,39.70
2019-03-17T15:03:56.277Z,39.90
2019-03-17T15:06:22.427Z,40.00
2019-03-17T15:08:48.573Z,39.90
2019-03-17T15:11:14.729Z,39.90
2019-03-17T15:13:40.873Z,40.00
2019-03-17T15:16:07.031Z,39.80
2019-03-17T15:18:33.185Z,39.80
2019-03-17T15:20:59.354Z,39.60
2019-03-17T15:23:25.512Z,39.70
2019-03-17T15:25:51.749Z,39.50
2019-03-17T15:28:17.915Z,39.80
2019-03-17T15:30:57.004Z,39.80
2019-03-17T15:33:10.316Z,39.60
2019-03-17T15:35:36.461Z,39.40
2019-03-17T15:38:02.697Z,39.50
2019-03-17T15:40:28.843Z,39.50
2019-03-17T15:42:54.996Z,40.30
2019-03-17T15:45:21.181Z,39.90
2019-03-17T15:47:47.342Z,39.80
2019-03-17T15:50:13.502Z,39.90
2019-03-17T15:52:39.662Z,40.00
2019-03-17T15:55:05.809Z,40.00
2019-03-17T15:57:33.064Z,39.70
2019-03-17T15:59:59.217Z,39.90
2019-03-17T16:02:25.373Z,39.80
2019-03-17T16:04:51.589Z,39.60
2019-03-17T16:07:18.220Z,39.50
2019-03-17T16:09:44.415Z,39.80
2019-03-17T16:12:10.576Z,40.00
2019-03-17T16:14:36.744Z,39.80
2019-03-17T16:17:03.013Z,39.90
2019-03-17T16:19:29.486Z,40.10
2019-03-17T16:21:55.800Z,39.80
2019-03-17T16:24:22.054Z,39.80
2019-03-17T16:26:48.221Z,39.30
2019-03-17T16:29:14.395Z,38.50
2019-03-17T16:31:40.551Z,38.90
2019-03-17T16:34:06.864Z,39.10
2019-03-17T16:36:33.023Z,39.60
2019-03-17T16:38:59.288Z,40.20
2019-03-17T16:41:25.466Z,40.20
2019-03-17T16:43:51.745Z,40.00
2019-03-17T16:46:17.898Z,39.80
2019-03-17T16:48:44.073Z,39.60
2019-03-17T16:51:10.240Z,40.30
2019-03-17T16:53:36.407Z,39.30
2019-03-17T16:56:02.562Z,39.20
2019-03-17T16:58:28.724Z,39.20
2019-03-17T17:00:54.877Z,39.10
2019-03-17T17:03:21.049Z,39.10
2019-03-17T17:05:47.232Z,38.90
2019-03-17T17:08:13.393Z,38.60
2019-03-17T17:10:39.543Z,38.80
2019-03-17T17:13:05.721Z,38.70
2019-03-17T17:15:32.636Z,38.60
2019-03-17T17:17:58.792Z,38.60
2019-03-17T17:20:24.959Z,38.60
2019-03-17T17:22:51.198Z,38.70
2019-03-17T17:25:17.320Z,38.50
2019-03-17T17:27:43.474Z,38.50
2019-03-17T17:30:09.616Z,38.60
2019-03-17T17:32:35.770Z,38.70
2019-03-17T17:35:01.938Z,38.70
2019-03-17T17:37:28.089Z,38.70
2019-03-17T17:39:54.258Z,38.80
2019-03-17T17:42:20.429Z,38.70
2019-03-17T17:44:46.601Z,38.70
2019-03-17T17:47:12.756Z,38.70
2019-03-17T17:49:38.971Z,38.70
2019-03-17T17:52:05.179Z,38.70
2019-03-17T17:54:31.484Z,38.70
2019-03-17T17:56:57.632Z,38.70
2019-03-17T17:59:23.801Z,38.70
2019-03-17T18:01:50.189Z,38.60
2019-03-17T18:04:16.361Z,38.70
2019-03-17T18:06:42.512Z,38.70
2019-03-17T18:09:08.684Z,38.70
2019-03-17T18:11:34.836Z,38.70
2019-03-17T18:14:01.004Z,38.70
2019-03-17T18:16:27.169Z,38.70
2019-03-17T18:18:53.320Z,38.70
2019-03-17T18:21:19.477Z,38.70
2019-03-17T18:23:45.632Z,38.60
2019-03-17T18:26:11.801Z,37.60
2019-03-17T18:28:37.949Z,38.30
2019-03-17T18:31:04.102Z,38.40
2019-03-17T18:33:30.256Z,38.60
2019-03-17T18:35:56.416Z,38.80
2019-03-17T18:38:22.604Z,38.70
2019-03-17T18:40:48.748Z,38.90
2019-03-17T18:43:14.901Z,38.90
2019-03-17T18:45:42.703Z,39.00
2019-03-17T18:48:07.245Z,39.20
2019-03-17T18:50:33.397Z,39.20
2019-03-17T18:52:59.557Z,39.20
2019-03-17T18:55:25.707Z,39.40
2019-03-17T18:57:51.873Z,39.40
2019-03-17T19:00:18.021Z,39.50
2019-03-17T19:02:44.174Z,39.50
2019-03-17T19:05:10.343Z,39.50
2019-03-17T19:07:36.496Z,39.30
2019-03-17T19:10:02.680Z,39.40
2019-03-17T19:12:28.837Z,39.40
2019-03-17T19:14:55.767Z,39.30
2019-03-17T19:17:21.916Z,39.40
2019-03-17T19:19:48.085Z,39.30
2019-03-17T19:22:14.238Z,39.30
2019-03-17T19:24:40.411Z,39.20
2019-03-17T19:27:06.565Z,39.30
2019-03-17T19:29:32.743Z,39.20
2019-03-17T19:31:58.880Z,39.30
2019-03-17T19:34:25.034Z,39.30
2019-03-17T19:36:51.184Z,39.30
2019-03-17T19:39:17.335Z,39.50
2019-03-17T19:41:44.240Z,39.20
2019-03-17T19:44:10.394Z,39.20
2019-03-17T19:46:36.569Z,39.30
2019-03-17T19:49:02.718Z,39.10
2019-03-17T19:51:28.873Z,39.40
2019-03-17T19:53:55.790Z,39.40
2019-03-17T19:56:21.952Z,39.30
2019-03-17T19:58:48.109Z,39.00
2019-03-17T20:01:14.260Z,39.20
2019-03-17T20:03:40.423Z,39.10
2019-03-17T20:06:07.337Z,38.70
2019-03-17T20:08:33.593Z,39.40
2019-03-17T20:10:59.678Z,38.80
2019-03-17T20:13:25.821Z,39.10
2019-03-17T20:15:51.969Z,39.00
2019-03-17T20:18:18.881Z,38.80
2019-03-17T20:20:45.116Z,38.80
2019-03-17T20:23:11.247Z,39.00
2019-03-17T20:25:37.403Z,38.80
2019-03-17T20:28:03.548Z,39.00
2019-03-17T20:30:29.712Z,39.50
2019-03-17T20:32:55.863Z,38.90
2019-03-17T20:35:22.018Z,38.70
2019-03-17T20:37:48.177Z,38.90
2019-03-17T20:40:14.340Z,38.80
2019-03-17T20:42:40.492Z,38.90
2019-03-17T20:45:06.642Z,38.80
2019-03-17T20:47:32.795Z,38.30
2019-03-17T20:49:58.948Z,38.70
2019-03-17T20:52:25.096Z,38.80
2019-03-17T20:54:51.254Z,38.70
2019-03-17T20:57:17.407Z,38.80
2019-03-17T20:59:44.334Z,38.40
2019-03-17T21:02:10.503Z,38.40
2019-03-17T21:04:36.648Z,38.60
2019-03-17T21:07:02.817Z,38.70
2019-03-17T21:09:28.968Z,38.50
2019-03-17T21:11:55.907Z,38.80
2019-03-17T21:14:22.059Z,38.80
2019-03-17T21:16:48.260Z,38.50
2019-03-17T21:19:14.409Z,38.30
2019-03-17T21:21:40.576Z,38.70
2019-03-17T21:24:06.739Z,38.40
2019-03-17T21:26:32.918Z,38.50
2019-03-17T21:28:59.064Z,38.60
2019-03-17T21:31:25.243Z,38.80
2019-03-17T21:33:51.400Z,38.70
2019-03-17T21:36:17.586Z,38.80
2019-03-17T21:38:43.742Z,38.70
2019-03-17T21:41:09.910Z,38.70
2019-03-17T21:43:36.829Z,38.40
2019-03-17T21:46:03.014Z,38.40
2019-03-17T21:48:29.161Z,38.60
2019-03-17T21:50:55.330Z,38.50
2019-03-17T21:53:21.478Z,38.60
2019-03-17T21:55:47.632Z,38.40
2019-03-17T21:58:13.781Z,38.80
2019-03-17T22:00:39.935Z,38.40
2019-03-17T22:03:06.089Z,38.00
2019-03-17T22:05:32.236Z,38.40
2019-03-17T22:07:58.413Z,38.00
2019-03-17T22:10:24.584Z,37.90
2019-03-17T22:12:50.741Z,37.80
2019-03-17T22:15:16.905Z,37.70
2019-03-17T22:17:43.076Z,37.80
2019-03-17T22:20:09.233Z,38.20
2019-03-17T22:22:35.399Z,37.70
2019-03-17T22:25:01.550Z,38.00
2019-03-17T22:27:27.719Z,37.70
2019-03-17T22:29:53.868Z,37.80
2019-03-17T22:32:20.036Z,38.00
2019-03-17T22:34:46.193Z,37.80
2019-03-17T22:37:12.370Z,37.80
2019-03-17T22:39:38.520Z,37.90
2019-03-17T22:42:04.688Z,37.40
2019-03-17T22:44:30.832Z,37.50
2019-03-17T22:46:57.003Z,37.60
2019-03-17T22:49:23.172Z,37.70
2019-03-17T22:51:49.341Z,37.50
2019-03-17T22:54:15.494Z,37.50
2019-03-17T22:56:42.428Z,37.80
2019-03-17T22:59:08.583Z,37.80
2019-03-17T23:01:34.756Z,37.70
2019-03-17T23:04:00.905Z,37.90
2019-03-17T23:06:27.055Z,37.60
2019-03-17T23:08:53.212Z,37.60
2019-03-17T23:11:19.367Z,37.70
2019-03-17T23:13:45.514Z,37.60
2019-03-17T23:16:11.674Z,37.50
2019-03-17T23:18:37.823Z,37.80
2019-03-17T23:21:03.978Z,37.70
2019-03-17T23:23:30.889Z,37.50
2019-03-17T23:25:57.045Z,37.50
2019-03-17T23:28:23.192Z,37.40
2019-03-17T23:30:49.338Z,37.40
2019-03-17T23:33:15.497Z,37.50
2019-03-17T23:35:41.645Z,37.50
2019-03-17T23:38:07.802Z,37.60
2019-03-17T23:40:33.949Z,37.60
2019-03-17T23:43:00.108Z,37.40
2019-03-17T23:45:26.252Z,37.50
2019-03-17T23:47:53.173Z,37.70
2019-03-17T23:50:19.317Z,37.70
2019-03-17T23:52:45.476Z,37.60
2019-03-17T23:55:11.724Z,37.60
2019-03-17T23:57:37.837Z,37.60
